sensor_id;sensor_type;location;lat;lon;timestamp;P1;durP1;ratioP1;P2;durP2;ratioP2
34978;SDS011;21185;50.978;13.720;2022-10-23T00:04:53;0.93;;;0.75;;
34978;SDS011;21185;50.978;13.720;2022-10-23T00:09:55;2.92;;;1.00;;
34978;SDS011;21185;50.978;13.720;2022-10-23T00:14:57;1.73;;;0.82;;
34978;SDS011;21185;50.978;13.720;2022-10-23T00:19:59;1.27;;;0.80;;
34978;SDS011;21185;50.978;13.720;2022-10-23T00:25:01;1.48;;;0.95;;
34978;SDS011;21185;50.978;13.720;2022-10-23T00:30:05;2.60;;;0.80;;
34978;SDS011;21185;50.978;13.720;2022-10-23T00:35:07;2.67;;;1.10;;
34978;SDS011;21185;50.978;13.720;2022-10-23T00:40:09;1.85;;;1.10;;
34978;SDS011;21185;50.978;13.720;2022-10-23T00:45:15;2.90;;;1.17;;
34978;SDS011;21185;50.978;13.720;2022-10-23T00:50:27;2.63;;;1.10;;
34978;SDS011;21185;50.978;13.720;2022-10-23T00:55:32;1.10;;;0.70;;
34978;SDS011;21185;50.978;13.720;2022-10-23T01:00:41;0.93;;;0.85;;
34978;SDS011;21185;50.978;13.720;2022-10-23T01:05:54;7.43;;;0.98;;
34978;SDS011;21185;50.978;13.720;2022-10-23T01:11:06;3.63;;;1.10;;
34978;SDS011;21185;50.978;13.720;2022-10-23T01:21:35;1.58;;;0.90;;
34978;SDS011;21185;50.978;13.720;2022-10-23T01:27:15;6.05;;;0.90;;
34978;SDS011;21185;50.978;13.720;2022-10-23T01:43:31;1.23;;;0.73;;
34978;SDS011;21185;50.978;13.720;2022-10-23T01:48:40;1.20;;;0.75;;
34978;SDS011;21185;50.978;13.720;2022-10-23T01:53:47;2.05;;;0.70;;
34978;SDS011;21185;50.978;13.720;2022-10-23T01:58:53;1.10;;;0.77;;
34978;SDS011;21185;50.978;13.720;2022-10-23T02:03:59;2.15;;;0.88;;
34978;SDS011;21185;50.978;13.720;2022-10-23T02:09:05;1.08;;;0.65;;
34978;SDS011;21185;50.978;13.720;2022-10-23T02:14:12;2.03;;;0.93;;
34978;SDS011;21185;50.978;13.720;2022-10-23T02:19:29;1.95;;;0.80;;
34978;SDS011;21185;50.978;13.720;2022-10-23T02:29:53;2.00;;;0.47;;
34978;SDS011;21185;50.978;13.720;2022-10-23T02:35:02;0.65;;;0.63;;
34978;SDS011;21185;50.978;13.720;2022-10-23T02:40:04;1.45;;;0.63;;
34978;SDS011;21185;50.978;13.720;2022-10-23T02:45:16;1.85;;;0.63;;
34978;SDS011;21185;50.978;13.720;2022-10-23T02:55:43;9.20;;;1.38;;
34978;SDS011;21185;50.978;13.720;2022-10-23T03:01:05;2.25;;;0.70;;
34978;SDS011;21185;50.978;13.720;2022-10-23T03:06:12;1.42;;;0.63;;
34978;SDS011;21185;50.978;13.720;2022-10-23T03:11:14;5.20;;;0.90;;
34978;SDS011;21185;50.978;13.720;2022-10-23T03:16:16;0.90;;;0.55;;
34978;SDS011;21185;50.978;13.720;2022-10-23T03:21:24;4.07;;;0.85;;
34978;SDS011;21185;50.978;13.720;2022-10-23T03:26:27;2.47;;;0.60;;
34978;SDS011;21185;50.978;13.720;2022-10-23T03:31:28;2.13;;;0.43;;
34978;SDS011;21185;50.978;13.720;2022-10-23T03:36:33;2.58;;;0.57;;
34978;SDS011;21185;50.978;13.720;2022-10-23T03:41:34;0.63;;;0.63;;
34978;SDS011;21185;50.978;13.720;2022-10-23T03:46:36;0.75;;;0.50;;
34978;SDS011;21185;50.978;13.720;2022-10-23T03:51:38;0.40;;;0.40;;
34978;SDS011;21185;50.978;13.720;2022-10-23T03:56:44;0.65;;;0.60;;
34978;SDS011;21185;50.978;13.720;2022-10-23T04:01:46;1.05;;;0.70;;
34978;SDS011;21185;50.978;13.720;2022-10-23T04:06:48;1.42;;;0.70;;
34978;SDS011;21185;50.978;13.720;2022-10-23T04:11:54;1.77;;;0.80;;
34978;SDS011;21185;50.978;13.720;2022-10-23T04:22:02;3.83;;;0.70;;
34978;SDS011;21185;50.978;13.720;2022-10-23T04:27:03;0.73;;;0.60;;
34978;SDS011;21185;50.978;13.720;2022-10-23T04:32:06;13.07;;;0.90;;
34978;SDS011;21185;50.978;13.720;2022-10-23T04:37:08;2.30;;;0.93;;
34978;SDS011;21185;50.978;13.720;2022-10-23T04:42:11;1.33;;;0.90;;
34978;SDS011;21185;50.978;13.720;2022-10-23T04:47:14;2.13;;;0.88;;
34978;SDS011;21185;50.978;13.720;2022-10-23T04:52:28;1.38;;;0.65;;
34978;SDS011;21185;50.978;13.720;2022-10-23T04:57:48;1.73;;;0.80;;
34978;SDS011;21185;50.978;13.720;2022-10-23T05:02:53;1.35;;;0.70;;
34978;SDS011;21185;50.978;13.720;2022-10-23T05:07:56;0.70;;;0.70;;
34978;SDS011;21185;50.978;13.720;2022-10-23T05:13:24;4.28;;;0.98;;
34978;SDS011;21185;50.978;13.720;2022-10-23T05:18:44;0.98;;;0.60;;
34978;SDS011;21185;50.978;13.720;2022-10-23T05:23:48;0.95;;;0.52;;
34978;SDS011;21185;50.978;13.720;2022-10-23T05:28:50;1.10;;;1.00;;
34978;SDS011;21185;50.978;13.720;2022-10-23T05:33:52;1.85;;;0.98;;
34978;SDS011;21185;50.978;13.720;2022-10-23T05:38:55;4.63;;;0.90;;
34978;SDS011;21185;50.978;13.720;2022-10-23T05:44:00;1.17;;;0.95;;
34978;SDS011;21185;50.978;13.720;2022-10-23T05:49:22;0.77;;;0.77;;
34978;SDS011;21185;50.978;13.720;2022-10-23T05:54:44;2.22;;;0.70;;
34978;SDS011;21185;50.978;13.720;2022-10-23T05:59:56;1.73;;;0.65;;
34978;SDS011;21185;50.978;13.720;2022-10-23T06:05:00;2.65;;;1.73;;
34978;SDS011;21185;50.978;13.720;2022-10-23T06:10:03;1.23;;;0.85;;
34978;SDS011;21185;50.978;13.720;2022-10-23T06:15:09;7.20;;;1.00;;
34978;SDS011;21185;50.978;13.720;2022-10-23T06:20:40;0.68;;;0.63;;
34978;SDS011;21185;50.978;13.720;2022-10-23T06:25:50;2.13;;;0.82;;
34978;SDS011;21185;50.978;13.720;2022-10-23T06:30:59;1.23;;;0.80;;
34978;SDS011;21185;50.978;13.720;2022-10-23T06:36:05;10.20;;;1.02;;
34978;SDS011;21185;50.978;13.720;2022-10-23T06:41:17;1.08;;;0.68;;
34978;SDS011;21185;50.978;13.720;2022-10-23T06:46:27;2.40;;;0.95;;
34978;SDS011;21185;50.978;13.720;2022-10-23T06:51:59;6.70;;;1.75;;
34978;SDS011;21185;50.978;13.720;2022-10-23T06:57:01;10.68;;;0.95;;
34978;SDS011;21185;50.978;13.720;2022-10-23T07:02:13;4.47;;;1.10;;
34978;SDS011;21185;50.978;13.720;2022-10-23T07:07:15;4.70;;;1.30;;
34978;SDS011;21185;50.978;13.720;2022-10-23T07:12:20;4.40;;;1.33;;
34978;SDS011;21185;50.978;13.720;2022-10-23T07:17:28;2.60;;;1.52;;
34978;SDS011;21185;50.978;13.720;2022-10-23T07:22:32;4.30;;;1.50;;
34978;SDS011;21185;50.978;13.720;2022-10-23T07:27:40;4.15;;;1.92;;
34978;SDS011;21185;50.978;13.720;2022-10-23T07:32:43;3.58;;;1.40;;
34978;SDS011;21185;50.978;13.720;2022-10-23T07:37:45;4.80;;;1.67;;
34978;SDS011;21185;50.978;13.720;2022-10-23T07:42:47;3.88;;;1.70;;
34978;SDS011;21185;50.978;13.720;2022-10-23T07:47:49;3.97;;;2.10;;
34978;SDS011;21185;50.978;13.720;2022-10-23T07:52:54;3.55;;;1.98;;
34978;SDS011;21185;50.978;13.720;2022-10-23T07:58:08;6.25;;;2.30;;
34978;SDS011;21185;50.978;13.720;2022-10-23T08:03:17;5.32;;;2.42;;
34978;SDS011;21185;50.978;13.720;2022-10-23T08:08:21;5.22;;;2.40;;
34978;SDS011;21185;50.978;13.720;2022-10-23T08:13:26;5.07;;;2.50;;
34978;SDS011;21185;50.978;13.720;2022-10-23T08:18:35;3.08;;;2.00;;
34978;SDS011;21185;50.978;13.720;2022-10-23T08:23:37;6.18;;;3.35;;
34978;SDS011;21185;50.978;13.720;2022-10-23T08:28:40;6.15;;;2.90;;
34978;SDS011;21185;50.978;13.720;2022-10-23T08:33:42;9.50;;;2.75;;
34978;SDS011;21185;50.978;13.720;2022-10-23T08:38:44;5.53;;;2.67;;
34978;SDS011;21185;50.978;13.720;2022-10-23T08:54:52;3.80;;;2.30;;
34978;SDS011;21185;50.978;13.720;2022-10-23T09:00:05;5.18;;;2.63;;
34978;SDS011;21185;50.978;13.720;2022-10-23T09:15:44;4.88;;;2.65;;
34978;SDS011;21185;50.978;13.720;2022-10-23T09:20:49;4.10;;;2.28;;
34978;SDS011;21185;50.978;13.720;2022-10-23T09:25:53;5.25;;;3.03;;
34978;SDS011;21185;50.978;13.720;2022-10-23T09:31:04;7.20;;;3.30;;
34978;SDS011;21185;50.978;13.720;2022-10-23T09:46:39;5.60;;;2.88;;
34978;SDS011;21185;50.978;13.720;2022-10-23T09:57:41;5.05;;;2.90;;
34978;SDS011;21185;50.978;13.720;2022-10-23T10:03:03;5.80;;;2.47;;
34978;SDS011;21185;50.978;13.720;2022-10-23T10:08:20;8.25;;;3.75;;
34978;SDS011;21185;50.978;13.720;2022-10-23T10:13:48;5.93;;;3.25;;
34978;SDS011;21185;50.978;13.720;2022-10-23T10:30:15;7.82;;;2.85;;
34978;SDS011;21185;50.978;13.720;2022-10-23T10:40:27;6.75;;;3.03;;
34978;SDS011;21185;50.978;13.720;2022-10-23T10:45:48;5.90;;;2.53;;
34978;SDS011;21185;50.978;13.720;2022-10-23T10:50:56;5.25;;;2.20;;
34978;SDS011;21185;50.978;13.720;2022-10-23T10:56:20;4.82;;;2.40;;
34978;SDS011;21185;50.978;13.720;2022-10-23T11:02:30;5.28;;;2.47;;
34978;SDS011;21185;50.978;13.720;2022-10-23T11:07:21;4.85;;;2.45;;
34978;SDS011;21185;50.978;13.720;2022-10-23T11:12:27;4.55;;;2.20;;
34978;SDS011;21185;50.978;13.720;2022-10-23T11:17:35;4.47;;;2.03;;
34978;SDS011;21185;50.978;13.720;2022-10-23T11:22:42;4.72;;;2.17;;
34978;SDS011;21185;50.978;13.720;2022-10-23T11:38:48;5.75;;;3.15;;
34978;SDS011;21185;50.978;13.720;2022-10-23T11:43:52;6.03;;;2.70;;
34978;SDS011;21185;50.978;13.720;2022-10-23T11:49:04;3.40;;;1.95;;
34978;SDS011;21185;50.978;13.720;2022-10-23T11:54:20;3.90;;;1.83;;
34978;SDS011;21185;50.978;13.720;2022-10-23T11:59:49;5.78;;;2.13;;
34978;SDS011;21185;50.978;13.720;2022-10-23T12:04:53;4.43;;;2.20;;
34978;SDS011;21185;50.978;13.720;2022-10-23T12:09:59;3.33;;;1.60;;
34978;SDS011;21185;50.978;13.720;2022-10-23T12:20:17;4.20;;;1.85;;
34978;SDS011;21185;50.978;13.720;2022-10-23T12:41:27;5.05;;;1.98;;
34978;SDS011;21185;50.978;13.720;2022-10-23T12:51:39;2.88;;;1.58;;
34978;SDS011;21185;50.978;13.720;2022-10-23T12:56:41;2.22;;;1.00;;
34978;SDS011;21185;50.978;13.720;2022-10-23T13:01:45;3.10;;;1.00;;
34978;SDS011;21185;50.978;13.720;2022-10-23T13:06:56;4.03;;;0.85;;
34978;SDS011;21185;50.978;13.720;2022-10-23T13:12:01;2.33;;;1.10;;
34978;SDS011;21185;50.978;13.720;2022-10-23T13:17:07;5.15;;;1.10;;
34978;SDS011;21185;50.978;13.720;2022-10-23T13:22:18;2.35;;;1.27;;
34978;SDS011;21185;50.978;13.720;2022-10-23T13:27:29;2.10;;;1.40;;
34978;SDS011;21185;50.978;13.720;2022-10-23T13:32:33;5.88;;;1.20;;
34978;SDS011;21185;50.978;13.720;2022-10-23T13:37:35;6.35;;;1.48;;
34978;SDS011;21185;50.978;13.720;2022-10-23T13:42:37;4.10;;;1.33;;
34978;SDS011;21185;50.978;13.720;2022-10-23T13:47:39;2.67;;;1.45;;
34978;SDS011;21185;50.978;13.720;2022-10-23T13:52:42;6.97;;;1.35;;
34978;SDS011;21185;50.978;13.720;2022-10-23T13:57:44;3.70;;;1.52;;
34978;SDS011;21185;50.978;13.720;2022-10-23T14:02:46;2.35;;;1.38;;
34978;SDS011;21185;50.978;13.720;2022-10-23T14:07:48;5.10;;;1.73;;
34978;SDS011;21185;50.978;13.720;2022-10-23T14:12:50;2.65;;;1.40;;
34978;SDS011;21185;50.978;13.720;2022-10-23T14:17:55;3.40;;;1.48;;
34978;SDS011;21185;50.978;13.720;2022-10-23T14:23:01;6.60;;;1.60;;
34978;SDS011;21185;50.978;13.720;2022-10-23T14:28:03;4.68;;;1.65;;
34978;SDS011;21185;50.978;13.720;2022-10-23T14:33:05;4.38;;;1.60;;
34978;SDS011;21185;50.978;13.720;2022-10-23T14:38:07;2.45;;;1.27;;
34978;SDS011;21185;50.978;13.720;2022-10-23T14:43:09;3.78;;;1.65;;
34978;SDS011;21185;50.978;13.720;2022-10-23T14:48:11;2.83;;;1.55;;
34978;SDS011;21185;50.978;13.720;2022-10-23T14:53:14;6.25;;;2.15;;
34978;SDS011;21185;50.978;13.720;2022-10-23T14:58:16;3.75;;;1.58;;
34978;SDS011;21185;50.978;13.720;2022-10-23T15:03:18;4.03;;;1.90;;
34978;SDS011;21185;50.978;13.720;2022-10-23T15:08:21;3.17;;;1.85;;
34978;SDS011;21185;50.978;13.720;2022-10-23T15:13:24;6.25;;;1.65;;
34978;SDS011;21185;50.978;13.720;2022-10-23T15:18:26;5.85;;;2.35;;
34978;SDS011;21185;50.978;13.720;2022-10-23T15:23:28;7.15;;;2.22;;
34978;SDS011;21185;50.978;13.720;2022-10-23T15:28:30;6.57;;;2.20;;
34978;SDS011;21185;50.978;13.720;2022-10-23T15:33:33;5.30;;;2.58;;
34978;SDS011;21185;50.978;13.720;2022-10-23T15:38:34;4.57;;;2.10;;
34978;SDS011;21185;50.978;13.720;2022-10-23T15:43:36;4.63;;;2.08;;
34978;SDS011;21185;50.978;13.720;2022-10-23T15:48:38;4.32;;;2.08;;
34978;SDS011;21185;50.978;13.720;2022-10-23T15:53:40;4.28;;;2.15;;
34978;SDS011;21185;50.978;13.720;2022-10-23T15:58:42;5.53;;;2.22;;
34978;SDS011;21185;50.978;13.720;2022-10-23T16:03:44;4.57;;;2.35;;
34978;SDS011;21185;50.978;13.720;2022-10-23T16:08:46;4.00;;;2.03;;
34978;SDS011;21185;50.978;13.720;2022-10-23T16:13:48;5.20;;;2.25;;
34978;SDS011;21185;50.978;13.720;2022-10-23T16:18:50;6.00;;;2.33;;
34978;SDS011;21185;50.978;13.720;2022-10-23T16:23:53;5.10;;;2.80;;
34978;SDS011;21185;50.978;13.720;2022-10-23T16:28:57;4.38;;;2.47;;
34978;SDS011;21185;50.978;13.720;2022-10-23T16:34:01;5.18;;;2.30;;
34978;SDS011;21185;50.978;13.720;2022-10-23T16:39:05;7.20;;;2.65;;
34978;SDS011;21185;50.978;13.720;2022-10-23T16:44:27;7.22;;;4.03;;
34978;SDS011;21185;50.978;13.720;2022-10-23T16:49:31;6.90;;;2.88;;
34978;SDS011;21185;50.978;13.720;2022-10-23T16:54:33;6.97;;;2.75;;
34978;SDS011;21185;50.978;13.720;2022-10-23T16:59:35;4.65;;;2.65;;
34978;SDS011;21185;50.978;13.720;2022-10-23T17:04:37;5.22;;;2.67;;
34978;SDS011;21185;50.978;13.720;2022-10-23T17:09:39;4.00;;;2.03;;
34978;SDS011;21185;50.978;13.720;2022-10-23T17:14:44;5.55;;;2.80;;
34978;SDS011;21185;50.978;13.720;2022-10-23T17:19:45;6.78;;;3.67;;
34978;SDS011;21185;50.978;13.720;2022-10-23T17:24:47;8.27;;;3.22;;
34978;SDS011;21185;50.978;13.720;2022-10-23T17:29:54;5.43;;;2.72;;
34978;SDS011;21185;50.978;13.720;2022-10-23T17:34:56;6.90;;;3.55;;
34978;SDS011;21185;50.978;13.720;2022-10-23T17:39:58;9.63;;;3.55;;
34978;SDS011;21185;50.978;13.720;2022-10-23T17:45:03;5.47;;;3.33;;
34978;SDS011;21185;50.978;13.720;2022-10-23T17:50:05;7.38;;;2.90;;
34978;SDS011;21185;50.978;13.720;2022-10-23T17:55:10;4.80;;;2.60;;
34978;SDS011;21185;50.978;13.720;2022-10-23T18:00:11;5.28;;;2.63;;
34978;SDS011;21185;50.978;13.720;2022-10-23T18:05:13;6.93;;;2.83;;
34978;SDS011;21185;50.978;13.720;2022-10-23T18:10:15;4.65;;;2.60;;
34978;SDS011;21185;50.978;13.720;2022-10-23T18:15:17;5.53;;;3.10;;
34978;SDS011;21185;50.978;13.720;2022-10-23T18:20:19;4.85;;;2.85;;
34978;SDS011;21185;50.978;13.720;2022-10-23T18:25:21;5.35;;;2.25;;
34978;SDS011;21185;50.978;13.720;2022-10-23T18:30:22;6.43;;;3.05;;
34978;SDS011;21185;50.978;13.720;2022-10-23T18:35:24;7.20;;;2.83;;
34978;SDS011;21185;50.978;13.720;2022-10-23T18:40:26;5.10;;;2.60;;
34978;SDS011;21185;50.978;13.720;2022-10-23T18:45:28;6.00;;;2.20;;
34978;SDS011;21185;50.978;13.720;2022-10-23T18:50:34;3.97;;;1.30;;
34978;SDS011;21185;50.978;13.720;2022-10-23T18:55:43;3.80;;;1.80;;
34978;SDS011;21185;50.978;13.720;2022-10-23T19:00:45;8.75;;;2.35;;
34978;SDS011;21185;50.978;13.720;2022-10-23T19:05:47;5.28;;;2.28;;
34978;SDS011;21185;50.978;13.720;2022-10-23T19:10:51;5.82;;;2.40;;
34978;SDS011;21185;50.978;13.720;2022-10-23T19:15:54;4.72;;;2.33;;
34978;SDS011;21185;50.978;13.720;2022-10-23T19:20:56;6.47;;;3.17;;
34978;SDS011;21185;50.978;13.720;2022-10-23T19:25:59;5.28;;;2.45;;
34978;SDS011;21185;50.978;13.720;2022-10-23T19:31:05;6.65;;;2.60;;
34978;SDS011;21185;50.978;13.720;2022-10-23T19:36:10;8.80;;;2.72;;
34978;SDS011;21185;50.978;13.720;2022-10-23T19:41:15;5.72;;;2.67;;
34978;SDS011;21185;50.978;13.720;2022-10-23T19:46:18;4.80;;;2.45;;
34978;SDS011;21185;50.978;13.720;2022-10-23T19:51:20;3.88;;;2.10;;
34978;SDS011;21185;50.978;13.720;2022-10-23T19:56:22;8.80;;;2.75;;
34978;SDS011;21185;50.978;13.720;2022-10-23T20:01:24;6.03;;;2.80;;
34978;SDS011;21185;50.978;13.720;2022-10-23T20:06:28;7.55;;;2.60;;
34978;SDS011;21185;50.978;13.720;2022-10-23T20:11:32;6.57;;;2.92;;
34978;SDS011;21185;50.978;13.720;2022-10-23T20:16:35;7.55;;;2.25;;
34978;SDS011;21185;50.978;13.720;2022-10-23T20:21:39;6.05;;;2.47;;
34978;SDS011;21185;50.978;13.720;2022-10-23T20:26:45;7.97;;;3.42;;
34978;SDS011;21185;50.978;13.720;2022-10-23T20:31:49;6.60;;;2.88;;
34978;SDS011;21185;50.978;13.720;2022-10-23T20:36:52;6.82;;;2.75;;
34978;SDS011;21185;50.978;13.720;2022-10-23T20:41:54;3.50;;;1.73;;
34978;SDS011;21185;50.978;13.720;2022-10-23T20:46:57;5.97;;;2.58;;
34978;SDS011;21185;50.978;13.720;2022-10-23T20:51:59;6.88;;;1.95;;
34978;SDS011;21185;50.978;13.720;2022-10-23T20:57:00;5.35;;;2.60;;
34978;SDS011;21185;50.978;13.720;2022-10-23T21:02:02;5.80;;;2.55;;
34978;SDS011;21185;50.978;13.720;2022-10-23T21:07:04;4.35;;;2.15;;
34978;SDS011;21185;50.978;13.720;2022-10-23T21:12:11;7.13;;;3.42;;
34978;SDS011;21185;50.978;13.720;2022-10-23T21:17:16;6.75;;;3.00;;
34978;SDS011;21185;50.978;13.720;2022-10-23T21:22:18;7.25;;;2.83;;
34978;SDS011;21185;50.978;13.720;2022-10-23T21:27:20;7.57;;;3.30;;
34978;SDS011;21185;50.978;13.720;2022-10-23T21:32:22;4.30;;;2.00;;
34978;SDS011;21185;50.978;13.720;2022-10-23T21:37:24;3.17;;;1.20;;
34978;SDS011;21185;50.978;13.720;2022-10-23T21:42:25;3.50;;;1.30;;
34978;SDS011;21185;50.978;13.720;2022-10-23T21:47:32;1.50;;;0.95;;
34978;SDS011;21185;50.978;13.720;2022-10-23T21:52:34;2.03;;;1.08;;
34978;SDS011;21185;50.978;13.720;2022-10-23T21:57:36;3.90;;;1.40;;
34978;SDS011;21185;50.978;13.720;2022-10-23T22:02:38;2.97;;;1.20;;
34978;SDS011;21185;50.978;13.720;2022-10-23T22:07:39;5.07;;;2.08;;
34978;SDS011;21185;50.978;13.720;2022-10-23T22:17:49;2.22;;;1.35;;
34978;SDS011;21185;50.978;13.720;2022-10-23T22:22:51;5.78;;;1.60;;
34978;SDS011;21185;50.978;13.720;2022-10-23T22:27:53;5.03;;;1.73;;
34978;SDS011;21185;50.978;13.720;2022-10-23T22:32:55;5.47;;;1.80;;
34978;SDS011;21185;50.978;13.720;2022-10-23T22:37:57;3.65;;;1.63;;
34978;SDS011;21185;50.978;13.720;2022-10-23T22:42:59;3.20;;;1.67;;
34978;SDS011;21185;50.978;13.720;2022-10-23T22:48:02;3.28;;;1.73;;
34978;SDS011;21185;50.978;13.720;2022-10-23T22:53:04;4.85;;;1.75;;
34978;SDS011;21185;50.978;13.720;2022-10-23T22:58:06;7.97;;;1.77;;
34978;SDS011;21185;50.978;13.720;2022-10-23T23:03:07;5.05;;;2.13;;
34978;SDS011;21185;50.978;13.720;2022-10-23T23:08:09;5.18;;;2.20;;
34978;SDS011;21185;50.978;13.720;2022-10-23T23:13:12;8.18;;;2.75;;
34978;SDS011;21185;50.978;13.720;2022-10-23T23:18:14;10.45;;;2.42;;
34978;SDS011;21185;50.978;13.720;2022-10-23T23:23:16;7.72;;;2.55;;
34978;SDS011;21185;50.978;13.720;2022-10-23T23:28:20;5.20;;;2.70;;
34978;SDS011;21185;50.978;13.720;2022-10-23T23:33:22;7.95;;;2.70;;
34978;SDS011;21185;50.978;13.720;2022-10-23T23:38:24;8.50;;;3.78;;
34978;SDS011;21185;50.978;13.720;2022-10-23T23:43:26;8.30;;;3.42;;
34978;SDS011;21185;50.978;13.720;2022-10-23T23:48:28;12.93;;;3.33;;
34978;SDS011;21185;50.978;13.720;2022-10-23T23:53:30;9.13;;;3.83;;
34978;SDS011;21185;50.978;13.720;2022-10-23T23:58:32;7.57;;;3.80;;
